createdAt,value
2019-02-27T00:00:44.665Z,99.99
2019-02-27T00:01:44.621Z,99.99
2019-02-27T00:02:44.591Z,99.99
2019-02-27T00:03:44.554Z,99.99
2019-02-27T00:04:44.518Z,99.99
2019-02-27T00:05:44.478Z,99.99
2019-02-27T00:06:47.686Z,99.99
2019-02-27T00:07:44.399Z,99.99
2019-02-27T00:08:44.365Z,99.99
2019-02-27T00:09:44.327Z,99.99
2019-02-27T00:10:44.289Z,99.99
2019-02-27T00:11:46.709Z,99.99
2019-02-27T00:12:44.215Z,99.99
2019-02-27T00:13:44.172Z,99.99
2019-02-27T00:14:44.140Z,99.99
2019-02-27T00:15:44.102Z,99.99
2019-02-27T00:16:44.733Z,99.99
2019-02-27T00:17:44.017Z,99.99
2019-02-27T00:18:44.019Z,99.99
2019-02-27T00:19:43.952Z,99.99
2019-02-27T00:20:43.912Z,99.99
2019-02-27T00:21:44.360Z,99.99
2019-02-27T00:22:43.842Z,99.99
2019-02-27T00:23:43.800Z,99.99
2019-02-27T00:24:43.756Z,99.99
2019-02-27T00:25:43.723Z,99.99
2019-02-27T00:26:43.685Z,99.99
2019-02-27T00:27:48.734Z,99.99
2019-02-27T00:28:43.612Z,99.99
2019-02-27T00:29:43.569Z,99.99
2019-02-27T00:30:43.535Z,99.99
2019-02-27T00:31:46.058Z,99.99
2019-02-27T00:32:43.460Z,99.99
2019-02-27T00:33:43.421Z,99.99
2019-02-27T00:34:43.386Z,99.99
2019-02-27T00:35:43.350Z,99.99
2019-02-27T00:36:45.174Z,99.99
2019-02-27T00:37:43.263Z,99.99
2019-02-27T00:38:43.235Z,99.99
2019-02-27T00:39:43.196Z,99.99
2019-02-27T00:40:43.157Z,99.99
2019-02-27T00:41:46.034Z,99.99
2019-02-27T00:42:43.083Z,99.99
2019-02-27T00:43:43.043Z,99.99
2019-02-27T00:44:43.007Z,99.99
2019-02-27T00:45:42.968Z,99.99
2019-02-27T00:46:43.944Z,99.99
2019-02-27T00:47:42.893Z,99.99
2019-02-27T00:48:42.855Z,99.99
2019-02-27T00:49:42.814Z,99.99
2019-02-27T00:50:42.780Z,99.99
2019-02-27T00:51:44.989Z,99.99
2019-02-27T00:52:42.703Z,99.99
2019-02-27T00:53:42.668Z,99.99
2019-02-27T00:54:42.630Z,99.99
2019-02-27T00:55:42.595Z,99.99
2019-02-27T00:56:44.783Z,99.99
2019-02-27T00:57:42.515Z,99.99
2019-02-27T00:58:42.479Z,99.99
2019-02-27T00:59:42.440Z,99.99
2019-02-27T01:00:42.393Z,99.99
2019-02-27T01:01:42.363Z,99.99
2019-02-27T01:02:42.339Z,99.99
2019-02-27T01:03:42.307Z,99.99
2019-02-27T01:04:42.251Z,99.99
2019-02-27T01:05:42.221Z,99.99
2019-02-27T01:06:42.175Z,99.99
2019-02-27T01:07:42.135Z,99.99
2019-02-27T01:08:42.098Z,99.99
2019-02-27T01:09:42.062Z,99.99
2019-02-27T01:10:42.838Z,99.99
2019-02-27T01:11:41.987Z,99.99
2019-02-27T01:12:41.947Z,99.99
2019-02-27T01:13:41.908Z,99.99
2019-02-27T01:14:41.871Z,99.99
2019-02-27T01:15:44.665Z,99.99
2019-02-27T01:16:41.796Z,99.99
2019-02-27T01:17:41.761Z,99.99
2019-02-27T01:18:41.723Z,99.99
2019-02-27T01:19:42.876Z,99.99
2019-02-27T01:20:45.654Z,99.99
2019-02-27T01:21:41.618Z,99.99
2019-02-27T01:22:41.570Z,99.99
2019-02-27T01:23:43.744Z,99.99
2019-02-27T01:24:41.493Z,99.99
2019-02-27T01:25:41.458Z,99.99
2019-02-27T01:26:41.422Z,99.99
2019-02-27T01:27:41.381Z,99.99
2019-02-27T01:28:44.702Z,99.99
2019-02-27T01:29:41.302Z,99.99
2019-02-27T01:30:41.266Z,99.99
2019-02-27T01:31:41.229Z,99.99
2019-02-27T01:32:41.194Z,99.99
2019-02-27T01:33:41.153Z,99.99
2019-02-27T01:34:44.258Z,99.99
2019-02-27T01:35:41.076Z,99.99
2019-02-27T01:36:41.040Z,99.99
2019-02-27T01:37:41.001Z,99.99
2019-02-27T01:38:40.965Z,99.99
2019-02-27T01:39:41.842Z,99.99
2019-02-27T01:40:40.886Z,99.99
2019-02-27T01:41:40.850Z,99.99
2019-02-27T01:42:40.812Z,99.99
2019-02-27T01:43:40.780Z,99.99
2019-02-27T01:44:40.736Z,99.99
2019-02-27T01:45:40.701Z,99.99
2019-02-27T01:46:40.657Z,99.99
2019-02-27T01:47:40.624Z,99.99
2019-02-27T01:48:43.639Z,99.99
2019-02-27T01:49:40.547Z,99.99
2019-02-27T01:50:40.507Z,99.99
2019-02-27T01:51:40.461Z,99.99
2019-02-27T01:52:40.435Z,99.99
2019-02-27T01:53:40.602Z,99.99
2019-02-27T01:54:40.356Z,99.99
2019-02-27T01:55:40.320Z,99.99
2019-02-27T01:56:40.280Z,99.99
2019-02-27T01:57:40.239Z,99.99
2019-02-27T01:58:43.454Z,99.99
2019-02-27T01:59:40.160Z,99.99
2019-02-27T02:00:40.132Z,99.99
2019-02-27T02:01:40.089Z,99.99
2019-02-27T02:02:40.560Z,99.99
2019-02-27T02:03:40.041Z,99.99
2019-02-27T02:04:39.975Z,99.99
2019-02-27T02:05:39.928Z,99.99
2019-02-27T02:06:39.901Z,99.99
2019-02-27T02:07:40.372Z,99.99
2019-02-27T02:08:39.821Z,99.99
2019-02-27T02:09:39.780Z,99.99
2019-02-27T02:10:39.742Z,99.99
2019-02-27T02:11:41.165Z,99.99
2019-02-27T02:12:41.652Z,99.99
2019-02-27T02:13:39.632Z,99.99
2019-02-27T02:14:39.590Z,99.99
2019-02-27T02:15:39.555Z,99.99
2019-02-27T02:16:39.514Z,99.99
2019-02-27T02:17:41.003Z,99.99
2019-02-27T02:18:39.440Z,99.99
2019-02-27T02:19:39.404Z,99.99
2019-02-27T02:20:39.362Z,99.99
2019-02-27T02:21:39.322Z,99.99
2019-02-27T02:22:41.297Z,99.99
2019-02-27T02:23:39.249Z,99.99
2019-02-27T02:24:39.209Z,99.99
2019-02-27T02:25:39.174Z,99.99
2019-02-27T02:26:39.138Z,99.99
2019-02-27T02:27:41.427Z,99.99
2019-02-27T02:28:39.055Z,99.99
2019-02-27T02:29:39.074Z,99.99
2019-02-27T02:30:38.982Z,99.99
2019-02-27T02:31:41.718Z,99.99
2019-02-27T02:32:38.912Z,99.99
2019-02-27T02:33:38.868Z,99.99
2019-02-27T02:34:40.115Z,99.99
2019-02-27T02:35:38.786Z,99.99
2019-02-27T02:36:38.753Z,99.99
2019-02-27T02:37:38.739Z,99.99
2019-02-27T02:38:38.675Z,99.99
2019-02-27T02:39:38.636Z,99.99
2019-02-27T02:40:38.610Z,99.99
2019-02-27T02:41:38.570Z,99.99
2019-02-27T02:42:38.543Z,99.99
2019-02-27T02:43:41.569Z,99.99
2019-02-27T02:44:38.446Z,99.99
2019-02-27T02:45:38.429Z,99.99
2019-02-27T02:46:44.830Z,99.99
2019-02-27T02:47:38.338Z,99.99
2019-02-27T02:48:38.297Z,99.99
2019-02-27T02:49:42.266Z,99.99
2019-02-27T02:50:38.225Z,99.99
2019-02-27T02:51:38.193Z,99.99
2019-02-27T02:52:40.839Z,99.99
2019-02-27T02:53:38.104Z,99.99
2019-02-27T02:54:38.181Z,99.99
2019-02-27T02:55:38.046Z,99.99
2019-02-27T02:56:37.996Z,99.99
2019-02-27T02:57:37.956Z,99.99
2019-02-27T02:58:37.922Z,99.99
2019-02-27T02:59:37.879Z,99.99
2019-02-27T03:00:39.039Z,99.99
2019-02-27T03:01:37.805Z,99.99
2019-02-27T03:02:37.772Z,99.99
2019-02-27T03:03:37.728Z,99.99
2019-02-27T03:04:37.683Z,99.99
2019-02-27T03:05:37.648Z,99.99
2019-02-27T03:06:37.622Z,99.99
2019-02-27T03:07:37.582Z,99.99
2019-02-27T03:08:37.540Z,99.99
2019-02-27T03:09:37.500Z,99.99
2019-02-27T03:10:42.527Z,99.99
2019-02-27T03:11:37.425Z,99.99
2019-02-27T03:12:37.384Z,99.99
2019-02-27T03:13:41.669Z,99.99
2019-02-27T03:14:37.342Z,99.99
2019-02-27T03:15:37.274Z,99.99
2019-02-27T03:16:41.174Z,99.99
2019-02-27T03:17:37.198Z,99.99
2019-02-27T03:18:37.159Z,99.99
2019-02-27T03:19:41.189Z,99.99
2019-02-27T03:20:37.077Z,99.99
2019-02-27T03:21:37.042Z,99.99
2019-02-27T03:22:40.381Z,99.99
2019-02-27T03:23:36.961Z,99.99
2019-02-27T03:24:36.931Z,99.99
2019-02-27T03:25:40.690Z,99.99
2019-02-27T03:26:36.867Z,99.99
2019-02-27T03:27:36.813Z,99.99
2019-02-27T03:28:40.642Z,99.99
2019-02-27T03:29:36.736Z,99.99
2019-02-27T03:30:37.002Z,99.99
2019-02-27T03:31:36.660Z,99.99
2019-02-27T03:32:43.121Z,99.99
2019-02-27T03:33:36.581Z,99.99
2019-02-27T03:34:48.164Z,99.99
2019-02-27T03:35:36.504Z,99.99
2019-02-27T03:36:39.010Z,99.99
2019-02-27T03:37:36.427Z,99.99
2019-02-27T03:38:36.393Z,99.99
2019-02-27T03:39:36.358Z,99.99
2019-02-27T03:40:36.313Z,99.99
2019-02-27T03:41:36.275Z,99.99
2019-02-27T03:42:36.239Z,99.99
2019-02-27T03:43:36.206Z,99.99
2019-02-27T03:44:36.166Z,99.99
2019-02-27T03:45:36.122Z,99.99
2019-02-27T03:46:40.789Z,99.99
2019-02-27T03:47:36.042Z,99.99
2019-02-27T03:48:36.009Z,99.99
2019-02-27T03:49:39.671Z,99.99
2019-02-27T03:50:35.933Z,99.99
2019-02-27T03:51:35.897Z,99.99
2019-02-27T03:52:37.250Z,99.99
2019-02-27T03:53:35.827Z,99.99
2019-02-27T03:54:35.777Z,99.99
2019-02-27T03:55:35.741Z,99.99
2019-02-27T03:56:35.704Z,99.99
2019-02-27T03:57:35.663Z,99.99
2019-02-27T03:58:35.627Z,99.99
2019-02-27T03:59:42.115Z,99.99
2019-02-27T04:00:35.561Z,99.99
2019-02-27T04:01:35.521Z,99.99
2019-02-27T04:02:38.819Z,99.99
2019-02-27T04:03:35.430Z,99.99
2019-02-27T04:04:35.394Z,99.99
2019-02-27T04:05:41.194Z,99.99
2019-02-27T04:06:35.317Z,99.99
2019-02-27T04:07:35.279Z,99.99
2019-02-27T04:08:35.239Z,99.99
2019-02-27T04:09:35.201Z,99.99
2019-02-27T04:10:35.161Z,99.99
2019-02-27T04:11:35.135Z,99.99
2019-02-27T04:12:35.084Z,99.99
2019-02-27T04:13:35.049Z,99.99
2019-02-27T04:14:40.555Z,99.99
2019-02-27T04:15:34.994Z,99.99
2019-02-27T04:16:34.933Z,99.99
2019-02-27T04:17:34.896Z,99.99
2019-02-27T04:18:34.858Z,99.99
2019-02-27T04:19:38.873Z,99.99
2019-02-27T04:20:34.786Z,99.99
2019-02-27T04:21:34.758Z,99.99
2019-02-27T04:22:37.511Z,99.99
2019-02-27T04:23:34.683Z,99.99
2019-02-27T04:24:34.622Z,99.99
2019-02-27T04:25:34.617Z,99.99
2019-02-27T04:26:34.552Z,99.99
2019-02-27T04:27:34.520Z,99.99
2019-02-27T04:28:34.474Z,99.99
2019-02-27T04:29:34.439Z,99.99
2019-02-27T04:30:34.393Z,99.99
2019-02-27T04:31:34.349Z,99.99
2019-02-27T04:32:34.334Z,99.99
2019-02-27T04:33:34.972Z,99.99
2019-02-27T04:34:34.244Z,99.99
2019-02-27T04:35:34.428Z,99.99
2019-02-27T04:36:34.161Z,99.99
2019-02-27T04:37:34.125Z,99.99
2019-02-27T04:38:34.387Z,99.99
2019-02-27T04:39:35.830Z,99.99
2019-02-27T04:40:34.024Z,99.99
2019-02-27T04:41:33.971Z,99.99
2019-02-27T04:42:33.945Z,99.99
2019-02-27T04:43:33.895Z,99.99
2019-02-27T04:44:35.953Z,99.99
2019-02-27T04:45:33.819Z,99.99
2019-02-27T04:46:33.779Z,99.99
2019-02-27T04:47:33.741Z,99.99
2019-02-27T04:48:33.726Z,99.99
2019-02-27T04:49:34.783Z,99.99
2019-02-27T04:50:33.628Z,99.99
2019-02-27T04:51:33.587Z,99.99
2019-02-27T04:52:33.549Z,99.99
2019-02-27T04:53:33.512Z,99.99
2019-02-27T04:54:35.037Z,99.99
2019-02-27T04:55:33.435Z,99.99
2019-02-27T04:56:33.399Z,99.99
2019-02-27T04:57:33.778Z,99.99
2019-02-27T04:58:33.320Z,99.99
2019-02-27T04:59:33.279Z,99.99
2019-02-27T05:00:33.243Z,99.99
2019-02-27T05:01:36.475Z,99.99
2019-02-27T05:02:33.164Z,99.99
2019-02-27T05:03:33.127Z,99.99
2019-02-27T05:04:35.246Z,99.99
2019-02-27T05:05:33.051Z,99.99
2019-02-27T05:06:33.008Z,99.99
2019-02-27T05:07:32.972Z,99.99
2019-02-27T05:08:32.937Z,99.99
2019-02-27T05:09:34.167Z,99.99
2019-02-27T05:10:33.875Z,99.99
2019-02-27T05:11:32.818Z,99.99
2019-02-27T05:12:32.779Z,99.99
2019-02-27T05:13:34.515Z,99.99
2019-02-27T05:14:32.700Z,99.99
2019-02-27T05:15:32.665Z,99.99
2019-02-27T05:16:32.626Z,99.99
2019-02-27T05:17:32.594Z,99.99
2019-02-27T05:18:32.547Z,99.99
2019-02-27T05:19:36.890Z,99.99
2019-02-27T05:20:32.470Z,99.99
2019-02-27T05:21:32.435Z,99.99
2019-02-27T05:22:32.393Z,99.99
2019-02-27T05:23:33.578Z,99.99
2019-02-27T05:24:32.318Z,99.99
2019-02-27T05:25:32.289Z,99.99
2019-02-27T05:26:32.238Z,99.99
2019-02-27T05:27:32.202Z,99.99
2019-02-27T05:28:34.970Z,99.99
2019-02-27T05:29:32.126Z,99.99
2019-02-27T05:30:32.087Z,99.99
2019-02-27T05:31:32.051Z,99.99
2019-02-27T05:32:32.009Z,99.99
2019-02-27T05:33:35.859Z,99.99
2019-02-27T05:34:31.933Z,99.99
2019-02-27T05:35:31.888Z,99.99
2019-02-27T05:36:32.389Z,99.99
2019-02-27T05:37:31.821Z,99.99
2019-02-27T05:38:31.783Z,99.99
2019-02-27T05:39:33.760Z,99.99
2019-02-27T05:40:31.696Z,99.99
2019-02-27T05:41:33.186Z,99.99
2019-02-27T05:42:31.621Z,99.99
2019-02-27T05:43:31.583Z,99.99
2019-02-27T05:44:31.545Z,99.99
2019-02-27T05:45:31.508Z,99.99
2019-02-27T05:46:31.463Z,99.99
2019-02-27T05:47:31.430Z,99.99
2019-02-27T05:48:31.394Z,99.99
2019-02-27T05:49:31.349Z,99.99
2019-02-27T05:50:34.030Z,99.99
2019-02-27T05:51:31.286Z,99.99
2019-02-27T05:52:31.237Z,99.99
2019-02-27T05:53:31.194Z,99.99
2019-02-27T05:54:32.266Z,99.99
2019-02-27T05:55:31.139Z,99.99
2019-02-27T05:56:31.084Z,99.99
2019-02-27T05:57:31.492Z,99.99
2019-02-27T05:58:31.005Z,99.99
2019-02-27T05:59:30.966Z,99.99
2019-02-27T06:00:30.952Z,99.99
2019-02-27T06:01:30.889Z,99.99
2019-02-27T06:02:30.851Z,99.99
2019-02-27T06:03:30.810Z,99.99
2019-02-27T06:04:30.772Z,99.99
2019-02-27T06:05:30.734Z,99.99
2019-02-27T06:06:30.715Z,99.99
2019-02-27T06:07:30.656Z,99.99
2019-02-27T06:08:34.865Z,99.99
2019-02-27T06:09:30.578Z,99.99
2019-02-27T06:10:30.539Z,99.99
2019-02-27T06:11:33.037Z,99.99
2019-02-27T06:12:31.271Z,99.99
2019-02-27T06:13:30.422Z,99.99
2019-02-27T06:14:30.383Z,99.99
2019-02-27T06:15:30.341Z,99.99
2019-02-27T06:16:30.308Z,99.99
2019-02-27T06:17:30.270Z,99.99
2019-02-27T06:18:30.228Z,99.99
2019-02-27T06:19:30.661Z,99.99
2019-02-27T06:20:30.153Z,99.99
2019-02-27T06:21:30.119Z,99.99
2019-02-27T06:22:30.410Z,99.99
2019-02-27T06:23:30.052Z,99.99
2019-02-27T06:24:30.001Z,99.99
2019-02-27T06:25:29.959Z,99.99
2019-02-27T06:26:32.158Z,99.99
2019-02-27T06:27:31.639Z,99.99
2019-02-27T06:28:29.843Z,99.99
2019-02-27T06:29:29.802Z,99.99
2019-02-27T06:30:30.763Z,99.99
2019-02-27T06:31:29.728Z,99.99
2019-02-27T06:32:29.687Z,99.99
2019-02-27T06:33:29.651Z,99.99
2019-02-27T06:34:29.610Z,99.99
2019-02-27T06:35:33.447Z,99.99
2019-02-27T06:36:29.532Z,99.99
2019-02-27T06:37:29.495Z,99.99
2019-02-27T06:38:29.468Z,99.99
2019-02-27T06:39:29.421Z,99.99
2019-02-27T06:40:29.372Z,99.99
2019-02-27T06:41:29.341Z,99.99
2019-02-27T06:42:29.370Z,99.99
2019-02-27T06:43:29.268Z,99.99
2019-02-27T06:44:29.224Z,99.99
2019-02-27T06:45:29.199Z,99.99
2019-02-27T06:46:29.151Z,99.99
2019-02-27T06:47:29.199Z,99.99
2019-02-27T06:48:29.078Z,99.99
2019-02-27T06:49:29.033Z,99.99
2019-02-27T06:50:28.998Z,99.99
2019-02-27T06:51:28.955Z,99.99
2019-02-27T06:52:28.922Z,99.99
2019-02-27T06:53:28.887Z,99.99
2019-02-27T06:54:28.853Z,99.99
2019-02-27T06:55:28.868Z,99.99
2019-02-27T06:56:28.774Z,99.99
2019-02-27T06:57:28.742Z,99.99
2019-02-27T06:58:28.700Z,99.99
2019-02-27T06:59:28.653Z,99.99
2019-02-27T07:00:28.623Z,99.99
2019-02-27T07:01:28.580Z,99.99
2019-02-27T07:02:28.552Z,99.99
2019-02-27T07:03:29.527Z,99.99
2019-02-27T07:04:28.474Z,99.99
2019-02-27T07:05:28.441Z,99.44
2019-02-27T07:06:28.408Z,99.44
2019-02-27T07:07:28.794Z,98.87
2019-02-27T07:08:28.331Z,98.02
2019-02-27T07:09:28.298Z,97.83
2019-02-27T07:10:28.275Z,97.64
2019-02-27T07:11:28.219Z,97.64
2019-02-27T07:12:28.191Z,97.55
2019-02-27T07:13:29.800Z,96.55
2019-02-27T07:14:28.116Z,95.70
2019-02-27T07:15:28.085Z,95.60
2019-02-27T07:16:28.049Z,95.31
2019-02-27T07:17:29.142Z,94.74
2019-02-27T07:18:27.975Z,94.93
2019-02-27T07:19:27.945Z,94.98
2019-02-27T07:20:27.910Z,95.22
2019-02-27T07:21:32.442Z,95.27
2019-02-27T07:22:27.844Z,95.27
2019-02-27T07:23:27.831Z,95.17
2019-02-27T07:24:30.601Z,95.17
2019-02-27T07:25:27.744Z,94.23
2019-02-27T07:26:27.711Z,94.27
2019-02-27T07:27:28.333Z,92.56
2019-02-27T07:28:27.644Z,91.89
2019-02-27T07:29:28.092Z,91.23
2019-02-27T07:30:27.579Z,90.47
2019-02-27T07:31:27.550Z,90.56
2019-02-27T07:32:31.422Z,89.94
2019-02-27T07:33:27.484Z,89.00
2019-02-27T07:34:27.443Z,87.13
2019-02-27T07:35:29.205Z,85.52
2019-02-27T07:36:27.381Z,84.19
2019-02-27T07:37:27.350Z,83.71
2019-02-27T07:38:27.319Z,83.52
2019-02-27T07:39:27.289Z,82.51
2019-02-27T07:40:27.253Z,82.32
2019-02-27T07:41:27.225Z,80.84
2019-02-27T07:42:31.873Z,80.65
2019-02-27T07:43:27.163Z,79.51
2019-02-27T07:44:27.132Z,78.37
2019-02-27T07:45:27.102Z,78.12
2019-02-27T07:46:27.070Z,76.88
2019-02-27T07:47:27.040Z,76.12
2019-02-27T07:48:27.037Z,75.93
2019-02-27T07:49:28.329Z,75.01
2019-02-27T07:50:26.959Z,74.06
2019-02-27T07:51:26.923Z,73.58
2019-02-27T07:52:32.243Z,73.49
2019-02-27T07:53:26.864Z,73.96
2019-02-27T07:54:29.136Z,72.72
2019-02-27T07:55:28.461Z,72.44
2019-02-27T07:56:26.772Z,72.48
2019-02-27T07:57:26.743Z,71.87
2019-02-27T07:58:31.214Z,72.16
2019-02-27T07:59:26.679Z,72.67
2019-02-27T08:00:26.672Z,72.67
2019-02-27T08:01:26.636Z,70.67
2019-02-27T08:02:26.598Z,70.95
2019-02-27T08:03:26.570Z,70.86
2019-02-27T08:04:26.547Z,71.43
2019-02-27T08:05:29.053Z,71.43
2019-02-27T08:06:26.480Z,71.43
2019-02-27T08:07:26.450Z,71.81
2019-02-27T08:08:26.420Z,69.84
2019-02-27T08:09:29.905Z,69.27
2019-02-27T08:10:26.363Z,68.22
2019-02-27T08:11:26.978Z,68.51
2019-02-27T08:12:26.978Z,68.92
2019-02-27T08:13:27.083Z,67.27
2019-02-27T08:14:26.250Z,67.27
2019-02-27T08:15:26.241Z,67.21
2019-02-27T08:16:26.195Z,67.27
2019-02-27T08:17:26.390Z,67.07
2019-02-27T08:18:30.081Z,67.36
2019-02-27T08:19:26.111Z,67.01
2019-02-27T08:20:26.079Z,66.92
2019-02-27T08:21:26.058Z,66.63
2019-02-27T08:22:26.300Z,65.87
2019-02-27T08:23:26.001Z,66.35
2019-02-27T08:24:25.964Z,65.90
2019-02-27T08:25:25.939Z,64.12
2019-02-27T08:26:25.911Z,63.54
2019-02-27T08:27:25.884Z,62.81
2019-02-27T08:28:25.866Z,60.55
2019-02-27T08:29:25.824Z,59.69
2019-02-27T08:30:25.801Z,58.95
2019-02-27T08:31:28.180Z,58.18
2019-02-27T08:32:25.753Z,58.28
2019-02-27T08:33:25.721Z,58.47
2019-02-27T08:34:25.698Z,58.09
2019-02-27T08:35:25.669Z,57.80
2019-02-27T08:36:25.656Z,57.92
2019-02-27T08:37:25.618Z,57.92
2019-02-27T08:38:25.583Z,57.54
2019-02-27T08:39:25.570Z,57.26
2019-02-27T08:40:25.540Z,57.61
2019-02-27T08:41:25.514Z,57.99
2019-02-27T08:42:25.488Z,56.87
2019-02-27T08:43:25.461Z,56.49
2019-02-27T08:44:25.436Z,56.61
2019-02-27T08:45:27.086Z,55.75
2019-02-27T08:46:25.384Z,55.30
2019-02-27T08:47:25.362Z,54.60
2019-02-27T08:48:25.334Z,54.50
2019-02-27T08:49:25.307Z,54.70
2019-02-27T08:50:25.283Z,55.49
2019-02-27T08:51:25.250Z,55.11
2019-02-27T08:52:25.230Z,54.75
2019-02-27T08:53:26.845Z,52.28
2019-02-27T08:54:25.178Z,51.51
2019-02-27T08:55:25.162Z,51.32
2019-02-27T08:56:25.134Z,49.82
2019-02-27T08:57:25.102Z,50.08
2019-02-27T08:58:26.702Z,50.78
2019-02-27T08:59:25.063Z,50.61
2019-02-27T09:00:25.024Z,49.26
2019-02-27T09:01:25.004Z,48.11
2019-02-27T09:02:29.247Z,49.17
2019-02-27T09:03:24.980Z,49.67
2019-02-27T09:04:24.929Z,48.71
2019-02-27T09:05:24.907Z,47.75
2019-02-27T09:06:27.333Z,47.08
2019-02-27T09:07:24.859Z,47.27
2019-02-27T09:08:24.832Z,46.41
2019-02-27T09:09:24.809Z,46.91
2019-02-27T09:10:27.547Z,46.62
2019-02-27T09:11:24.759Z,47.41
2019-02-27T09:12:24.736Z,46.16
2019-02-27T09:13:24.711Z,45.20
2019-02-27T09:14:24.712Z,44.02
2019-02-27T09:15:24.673Z,43.95
2019-02-27T09:16:26.018Z,45.39
2019-02-27T09:17:26.838Z,45.22
2019-02-27T09:18:24.587Z,43.57
2019-02-27T09:19:24.568Z,44.65
2019-02-27T09:20:24.543Z,44.45
2019-02-27T09:21:24.956Z,43.11
2019-02-27T09:22:24.494Z,43.03
2019-02-27T09:23:24.473Z,43.15
2019-02-27T09:24:24.446Z,42.28
2019-02-27T09:25:24.977Z,41.13
2019-02-27T09:26:24.423Z,41.41
2019-02-27T09:27:24.376Z,41.99
2019-02-27T09:28:24.355Z,42.19
2019-02-27T09:29:24.329Z,42.49
2019-02-27T09:30:28.787Z,42.40
2019-02-27T09:31:24.282Z,40.97
2019-02-27T09:32:24.261Z,40.80
2019-02-27T09:33:24.236Z,40.88
2019-02-27T09:34:26.624Z,40.97
2019-02-27T09:35:24.187Z,40.01
2019-02-27T09:36:24.166Z,39.74
2019-02-27T09:37:24.140Z,38.76
2019-02-27T09:38:24.866Z,39.54
2019-02-27T09:39:24.117Z,39.47
2019-02-27T09:40:24.070Z,38.35
2019-02-27T09:41:24.056Z,37.30
2019-02-27T09:42:24.028Z,35.95
2019-02-27T09:43:27.044Z,34.83
2019-02-27T09:44:23.979Z,35.60
2019-02-27T09:45:23.956Z,33.97
2019-02-27T09:46:23.934Z,32.91
2019-02-27T09:47:25.859Z,32.64
2019-02-27T09:48:23.891Z,32.15
2019-02-27T09:49:23.867Z,30.91
2019-02-27T09:50:23.840Z,30.42
2019-02-27T09:51:23.813Z,30.15
2019-02-27T09:52:23.810Z,29.85
2019-02-27T09:53:23.770Z,29.47
2019-02-27T09:54:23.751Z,29.77
2019-02-27T09:55:23.727Z,30.74
2019-02-27T09:56:26.093Z,32.56
2019-02-27T09:57:23.680Z,33.83
2019-02-27T09:58:23.660Z,33.92
2019-02-27T09:59:23.639Z,33.65
2019-02-27T10:00:25.910Z,33.75
2019-02-27T10:01:23.588Z,33.73
2019-02-27T10:02:23.564Z,33.92
2019-02-27T10:03:23.543Z,34.67
2019-02-27T10:04:25.934Z,34.61
2019-02-27T10:05:23.499Z,33.17
2019-02-27T10:06:23.539Z,32.78
2019-02-27T10:07:23.492Z,33.44
2019-02-27T10:08:25.368Z,32.60
2019-02-27T10:09:23.407Z,34.04
2019-02-27T10:10:23.386Z,32.60
2019-02-27T10:11:23.359Z,32.21
2019-02-27T10:12:27.144Z,31.92
2019-02-27T10:13:23.321Z,32.42
2019-02-27T10:14:23.298Z,32.31
2019-02-27T10:15:25.293Z,31.52
2019-02-27T10:16:23.254Z,31.05
2019-02-27T10:17:23.275Z,32.23
2019-02-27T10:18:23.205Z,33.78
2019-02-27T10:19:23.191Z,32.81
2019-02-27T10:20:23.160Z,31.35
2019-02-27T10:21:23.140Z,32.12
2019-02-27T10:22:24.601Z,32.02
2019-02-27T10:23:23.096Z,32.04
2019-02-27T10:24:23.076Z,31.94
2019-02-27T10:25:23.050Z,31.55
2019-02-27T10:26:23.029Z,31.19
2019-02-27T10:27:25.506Z,29.94
2019-02-27T10:28:22.985Z,29.76
2019-02-27T10:29:22.964Z,29.76
2019-02-27T10:30:22.943Z,29.28
2019-02-27T10:31:25.856Z,29.74
2019-02-27T10:32:22.897Z,28.38
2019-02-27T10:33:22.872Z,28.00
2019-02-27T10:34:22.855Z,29.06
2019-02-27T10:35:23.090Z,27.83
2019-02-27T10:36:22.808Z,27.55
2019-02-27T10:37:22.899Z,27.04
2019-02-27T10:38:22.767Z,28.22
2019-02-27T10:39:22.744Z,27.86
2019-02-27T10:40:22.751Z,27.65
2019-02-27T10:41:22.702Z,29.78
2019-02-27T10:42:22.681Z,29.32
2019-02-27T10:43:22.662Z,28.54
2019-02-27T10:44:22.639Z,28.23
2019-02-27T10:45:22.621Z,29.21
2019-02-27T10:46:23.655Z,29.30
2019-02-27T10:47:22.575Z,28.36
2019-02-27T10:48:22.559Z,27.80
2019-02-27T10:49:22.536Z,26.40
2019-02-27T10:50:22.511Z,27.28
2019-02-27T10:51:22.492Z,26.50
2019-02-27T10:52:24.425Z,26.89
2019-02-27T10:53:27.184Z,26.30
2019-02-27T10:54:22.430Z,25.80
2019-02-27T10:55:22.407Z,25.92
2019-02-27T10:56:24.223Z,25.36
2019-02-27T10:57:22.365Z,24.58
2019-02-27T10:58:22.346Z,24.21
2019-02-27T10:59:23.066Z,23.34
2019-02-27T11:00:24.913Z,24.69
2019-02-27T11:01:22.281Z,24.71
2019-02-27T11:02:23.549Z,23.74
2019-02-27T11:03:23.631Z,25.21
2019-02-27T11:04:22.227Z,25.51
2019-02-27T11:05:22.199Z,25.62
2019-02-27T11:06:22.181Z,25.05
2019-02-27T11:07:22.161Z,23.90
2019-02-27T11:08:22.140Z,23.41
2019-02-27T11:09:22.118Z,22.81
2019-02-27T11:10:22.102Z,22.39
2019-02-27T11:11:22.070Z,24.24
2019-02-27T11:12:22.058Z,24.05
2019-02-27T11:13:22.037Z,23.36
2019-02-27T11:14:22.019Z,23.16
2019-02-27T11:15:21.997Z,23.76
2019-02-27T11:16:22.131Z,22.22
2019-02-27T11:17:21.957Z,22.97
2019-02-27T11:18:21.941Z,22.70
2019-02-27T11:19:21.922Z,22.91
2019-02-27T11:20:22.449Z,22.80
2019-02-27T11:21:21.876Z,22.23
2019-02-27T11:22:21.866Z,22.70
2019-02-27T11:23:21.838Z,23.28
2019-02-27T11:24:21.816Z,22.41
2019-02-27T11:25:22.558Z,22.52
2019-02-27T11:26:21.781Z,22.41
2019-02-27T11:27:21.762Z,19.96
2019-02-27T11:28:21.732Z,22.33
2019-02-27T11:29:23.836Z,21.84
2019-02-27T11:30:21.692Z,21.66
2019-02-27T11:31:21.677Z,21.27
2019-02-27T11:32:23.820Z,20.29
2019-02-27T11:33:25.787Z,19.60
2019-02-27T11:34:21.630Z,19.93
2019-02-27T11:35:22.030Z,18.96
2019-02-27T11:36:21.590Z,18.07
2019-02-27T11:37:21.554Z,19.04
2019-02-27T11:38:24.145Z,18.56
2019-02-27T11:39:21.518Z,18.85
2019-02-27T11:40:21.500Z,18.67
2019-02-27T11:41:21.482Z,18.18
2019-02-27T11:42:21.457Z,17.79
2019-02-27T11:43:21.440Z,17.29
2019-02-27T11:44:21.421Z,17.88
2019-02-27T11:45:24.633Z,17.30
2019-02-27T11:46:21.382Z,17.30
2019-02-27T11:47:21.362Z,18.01
2019-02-27T11:48:22.901Z,17.21
2019-02-27T11:49:21.322Z,17.88
2019-02-27T11:50:21.311Z,17.96
2019-02-27T11:51:21.285Z,17.66
2019-02-27T11:52:21.264Z,17.97
2019-02-27T11:53:21.239Z,18.10
2019-02-27T11:54:21.231Z,18.27
2019-02-27T11:55:21.212Z,18.07
2019-02-27T11:56:21.195Z,18.75
2019-02-27T11:57:21.173Z,18.27
2019-02-27T11:58:21.154Z,18.68
2019-02-27T11:59:21.136Z,17.69
2019-02-27T12:00:21.350Z,17.41
2019-02-27T12:01:22.007Z,16.72
2019-02-27T12:02:28.743Z,18.17
2019-02-27T12:03:21.064Z,17.98
2019-02-27T12:04:21.040Z,17.90
2019-02-27T12:05:21.038Z,17.21
2019-02-27T12:06:21.008Z,16.04
2019-02-27T12:07:20.989Z,17.13
2019-02-27T12:08:22.462Z,16.24
2019-02-27T12:09:20.952Z,17.12
2019-02-27T12:10:20.931Z,16.14
2019-02-27T12:11:20.913Z,16.83
2019-02-27T12:12:23.312Z,17.42
2019-02-27T12:13:20.879Z,17.50
2019-02-27T12:14:20.863Z,16.92
2019-02-27T12:15:20.845Z,17.52
2019-02-27T12:16:20.824Z,17.02
2019-02-27T12:17:23.281Z,17.13
2019-02-27T12:18:20.789Z,17.50
2019-02-27T12:19:20.771Z,18.21
2019-02-27T12:20:20.750Z,16.83
2019-02-27T12:21:20.735Z,16.24
2019-02-27T12:22:20.713Z,16.24
2019-02-27T12:23:20.698Z,16.83
2019-02-27T12:24:20.680Z,16.25
2019-02-27T12:25:20.662Z,15.77
2019-02-27T12:26:20.644Z,16.64
2019-02-27T12:27:42.780Z,16.74
2019-02-27T12:28:20.606Z,15.54
2019-02-27T12:29:20.594Z,15.92
2019-02-27T12:30:20.571Z,16.05
2019-02-27T12:31:20.552Z,16.52
2019-02-27T12:32:21.960Z,17.42
2019-02-27T12:33:20.517Z,17.03
2019-02-27T12:34:20.498Z,15.36
2019-02-27T12:35:20.480Z,16.14
2019-02-27T12:36:20.463Z,16.80
2019-02-27T12:37:28.179Z,16.60
2019-02-27T12:38:20.420Z,18.25
2019-02-27T12:39:20.409Z,18.91
2019-02-27T12:40:23.875Z,19.45
2019-02-27T12:41:20.371Z,21.30
2019-02-27T12:42:20.353Z,22.16
2019-02-27T12:43:20.338Z,22.69
2019-02-27T12:44:20.315Z,23.46
2019-02-27T12:45:20.356Z,24.71
2019-02-27T12:46:20.275Z,26.36
2019-02-27T12:47:20.250Z,26.26
2019-02-27T12:48:20.229Z,26.25
2019-02-27T12:49:20.953Z,27.70
2019-02-27T12:50:20.185Z,25.51
2019-02-27T12:51:21.118Z,23.78
2019-02-27T12:52:20.141Z,22.64